Dillsboro, Indiana
Current Conditions -  °F | °C
As of 12:52 PM on Sunday 21 Dec 2014 (Local Time) from KCVG Reporting Station
Broken Clouds Broken Clouds  
Wind Chill: 30°   Ceiling: 15000
Heat Index: 36°   Visibility: 9mi
Dew Point: 25°   Wind: 7mph
Humidity: 64%   Direction: 100°E
Pressure: 30.24"   Gusts: NA
Location:  39.02°N, 85.06°W
Report Text: KCVG 211752Z 10006KT 9SM FEW018 BKN150 02/M04 A3024 RMK AO2 SLP244 T00221039 10022 21033 58024
Loading
Personal Weather Stations






























Interactive Weather Map New forecast layout! Learn more

10-Day Weather Forecast

Advertisements
Track Severe Weather on mobile